createdAt,value
2018-09-18T00:00:27.986Z,14.19
2018-09-18T00:02:20.775Z,14.12
2018-09-18T00:03:20.699Z,14.20
2018-09-18T00:05:13.484Z,14.16
2018-09-18T00:06:13.420Z,14.11
2018-09-18T00:08:06.220Z,14.12
2018-09-18T00:09:06.147Z,14.09
2018-09-18T00:10:58.919Z,14.06
2018-09-18T00:11:58.859Z,14.06
2018-09-18T00:13:50.738Z,14.01
2018-09-18T00:14:50.652Z,13.94
2018-09-18T00:16:43.424Z,13.96
2018-09-18T00:17:43.382Z,13.98
2018-09-18T00:19:36.137Z,13.91
2018-09-18T00:20:36.058Z,13.90
2018-09-18T00:22:28.836Z,13.81
2018-09-18T00:23:28.762Z,13.79
2018-09-18T00:25:21.531Z,13.86
2018-09-18T00:26:21.460Z,13.96
2018-09-18T00:28:14.247Z,13.84
2018-09-18T00:29:14.169Z,13.93
2018-09-18T00:31:06.934Z,13.87
2018-09-18T00:32:06.876Z,13.98
2018-09-18T00:33:59.663Z,14.01
2018-09-18T00:34:59.572Z,13.88
2018-09-18T00:36:52.346Z,13.94
2018-09-18T00:37:52.273Z,13.98
2018-09-18T00:39:45.056Z,13.86
2018-09-18T00:40:44.975Z,13.84
2018-09-18T00:42:37.793Z,13.86
2018-09-18T00:43:37.701Z,13.88
2018-09-18T00:45:30.480Z,13.81
2018-09-18T00:46:30.413Z,13.69
2018-09-18T00:48:23.189Z,13.76
2018-09-18T00:49:23.109Z,13.68
2018-09-18T00:51:15.890Z,13.75
2018-09-18T00:52:15.826Z,13.83
2018-09-18T00:54:08.614Z,13.84
2018-09-18T00:55:08.529Z,13.86
2018-09-18T00:57:01.315Z,13.83
2018-09-18T00:58:01.254Z,13.87
2018-09-18T00:59:54.044Z,13.90
2018-09-18T01:00:53.961Z,13.84
2018-09-18T01:02:46.726Z,13.87
2018-09-18T01:03:46.660Z,13.84
2018-09-18T01:05:39.452Z,13.88
2018-09-18T01:06:39.389Z,13.83
2018-09-18T01:08:32.195Z,13.73
2018-09-18T01:09:32.095Z,13.75
2018-09-18T01:11:24.871Z,13.53
2018-09-18T01:12:24.807Z,13.63
2018-09-18T01:14:17.615Z,13.55
2018-09-18T01:15:17.520Z,13.51
2018-09-18T01:17:10.323Z,13.59
2018-09-18T01:18:10.242Z,13.53
2018-09-18T01:20:03.046Z,13.57
2018-09-18T01:21:02.965Z,13.51
2018-09-18T01:22:55.727Z,13.53
2018-09-18T01:23:55.655Z,13.54
2018-09-18T01:25:48.440Z,13.53
2018-09-18T01:26:48.365Z,13.51
2018-09-18T01:28:41.164Z,13.50
2018-09-18T01:29:41.073Z,13.54
2018-09-18T01:31:33.864Z,13.50
2018-09-18T01:32:33.792Z,13.54
2018-09-18T01:34:26.572Z,13.51
2018-09-18T01:35:26.487Z,13.66
2018-09-18T01:37:19.261Z,13.62
2018-09-18T01:38:19.197Z,13.50
2018-09-18T01:40:11.967Z,13.51
2018-09-18T01:41:11.894Z,13.54
2018-09-18T01:43:04.654Z,13.47
2018-09-18T01:44:04.583Z,13.51
2018-09-18T01:45:57.353Z,13.59
2018-09-18T01:46:57.284Z,13.54
2018-09-18T01:48:50.064Z,13.43
2018-09-18T01:49:49.986Z,13.44
2018-09-18T01:51:42.745Z,13.53
2018-09-18T01:52:42.687Z,13.51
2018-09-18T01:54:35.458Z,13.48
2018-09-18T01:55:35.377Z,13.44
2018-09-18T01:57:28.157Z,13.41
2018-09-18T01:58:28.093Z,13.43
2018-09-18T02:00:20.877Z,13.36
2018-09-18T02:01:20.787Z,13.43
2018-09-18T02:03:13.556Z,13.43
2018-09-18T02:04:13.490Z,13.35
2018-09-18T02:06:06.270Z,13.36
2018-09-18T02:07:06.200Z,13.38
2018-09-18T02:08:59.004Z,13.29
2018-09-18T02:09:58.897Z,13.51
2018-09-18T02:11:51.718Z,13.47
2018-09-18T02:12:51.639Z,13.32
2018-09-18T02:14:44.457Z,13.32
2018-09-18T02:15:44.399Z,13.50
2018-09-18T02:17:37.179Z,13.54
2018-09-18T02:18:37.102Z,13.41
2018-09-18T02:20:29.878Z,13.41
2018-09-18T02:21:29.816Z,13.48
2018-09-18T02:23:22.592Z,13.39
2018-09-18T02:24:22.533Z,13.48
2018-09-18T02:26:15.305Z,13.51
2018-09-18T02:27:15.227Z,13.51
2018-09-18T02:29:08.039Z,13.53
2018-09-18T02:30:07.949Z,13.44
2018-09-18T02:32:00.726Z,13.48
2018-09-18T02:33:00.667Z,13.36
2018-09-18T02:34:53.451Z,13.38
2018-09-18T02:35:53.370Z,13.35
2018-09-18T02:37:45.279Z,13.46
2018-09-18T02:38:45.215Z,13.51
2018-09-18T02:40:37.977Z,13.44
2018-09-18T02:41:37.914Z,13.36
2018-09-18T02:43:30.679Z,13.43
2018-09-18T02:44:30.614Z,13.35
2018-09-18T02:46:23.383Z,13.43
2018-09-18T02:47:23.311Z,13.38
2018-09-18T02:49:16.096Z,13.27
2018-09-18T02:50:16.006Z,13.43
2018-09-18T02:52:08.817Z,13.41
2018-09-18T02:53:08.760Z,13.39
2018-09-18T02:55:01.529Z,13.28
2018-09-18T02:56:01.453Z,13.29
2018-09-18T02:57:54.238Z,13.28
2018-09-18T02:58:54.157Z,13.27
2018-09-18T03:00:46.017Z,13.25
2018-09-18T03:01:45.943Z,13.29
2018-09-18T03:03:38.702Z,13.28
2018-09-18T03:04:38.634Z,13.39
2018-09-18T03:06:31.409Z,13.43
2018-09-18T03:07:31.328Z,13.32
2018-09-18T03:09:24.133Z,13.24
2018-09-18T03:10:24.028Z,13.29
2018-09-18T03:12:16.791Z,13.32
2018-09-18T03:13:16.747Z,13.35
2018-09-18T03:15:09.651Z,13.36
2018-09-18T03:16:09.606Z,13.39
2018-09-18T03:18:02.365Z,13.24
2018-09-18T03:19:02.338Z,13.14
2018-09-18T03:20:55.396Z,13.27
2018-09-18T03:21:55.285Z,13.22
2018-09-18T03:23:48.132Z,13.28
2018-09-18T03:24:48.063Z,13.21
2018-09-18T03:26:40.963Z,13.19
2018-09-18T03:27:40.942Z,13.16
2018-09-18T03:29:33.807Z,13.09
2018-09-18T03:30:33.691Z,13.10
2018-09-18T03:32:26.596Z,13.04
2018-09-18T03:33:26.538Z,12.92
2018-09-18T03:35:19.432Z,12.99
2018-09-18T03:36:19.469Z,12.89
2018-09-18T03:38:12.190Z,12.91
2018-09-18T03:39:12.126Z,12.91
2018-09-18T03:41:05.047Z,12.94
2018-09-18T03:42:05.059Z,12.88
2018-09-18T03:43:57.871Z,12.91
2018-09-18T03:44:57.765Z,12.74
2018-09-18T03:46:50.721Z,12.79
2018-09-18T03:47:50.646Z,12.71
2018-09-18T03:49:43.677Z,12.74
2018-09-18T03:50:43.505Z,12.62
2018-09-18T03:52:36.273Z,12.67
2018-09-18T03:53:36.214Z,12.69
2018-09-18T03:55:29.065Z,12.67
2018-09-18T03:56:29.092Z,12.67
2018-09-18T03:58:21.807Z,12.70
2018-09-18T03:59:21.814Z,12.62
2018-09-18T04:01:14.651Z,12.67
2018-09-18T04:02:14.492Z,12.66
2018-09-18T04:04:07.269Z,12.56
2018-09-18T04:05:07.198Z,12.55
2018-09-18T04:06:59.991Z,12.51
2018-09-18T04:07:59.920Z,12.52
2018-09-18T04:09:52.687Z,12.54
2018-09-18T04:10:52.621Z,12.49
2018-09-18T04:12:45.371Z,12.58
2018-09-18T04:13:45.308Z,12.51
2018-09-18T04:15:38.088Z,12.52
2018-09-18T04:16:38.011Z,12.56
2018-09-18T04:18:30.776Z,12.52
2018-09-18T04:19:30.710Z,12.49
2018-09-18T04:21:23.507Z,12.52
2018-09-18T04:22:23.406Z,12.52
2018-09-18T04:24:16.237Z,12.37
2018-09-18T04:25:16.160Z,12.33
2018-09-18T04:27:08.970Z,12.33
2018-09-18T04:28:08.856Z,12.31
2018-09-18T04:30:01.682Z,12.34
2018-09-18T04:31:01.610Z,12.36
2018-09-18T04:32:54.383Z,12.36
2018-09-18T04:33:54.315Z,12.34
2018-09-18T04:35:47.085Z,12.43
2018-09-18T04:36:47.021Z,12.36
2018-09-18T04:38:39.818Z,12.40
2018-09-18T04:39:39.753Z,12.37
2018-09-18T04:41:32.546Z,12.37
2018-09-18T04:42:32.459Z,12.37
2018-09-18T04:44:25.226Z,12.41
2018-09-18T04:45:25.156Z,12.34
2018-09-18T04:47:17.957Z,12.36
2018-09-18T04:48:17.872Z,12.43
2018-09-18T04:50:10.662Z,12.40
2018-09-18T04:51:10.583Z,12.44
2018-09-18T04:53:03.349Z,12.51
2018-09-18T04:54:03.282Z,12.58
2018-09-18T04:55:56.098Z,12.54
2018-09-18T04:56:55.994Z,12.54
2018-09-18T04:58:48.749Z,12.66
2018-09-18T04:59:48.693Z,12.67
2018-09-18T05:01:41.471Z,12.67
2018-09-18T05:02:41.372Z,12.66
2018-09-18T05:04:34.150Z,12.71
2018-09-18T05:05:34.105Z,12.71
2018-09-18T05:07:26.869Z,12.73
2018-09-18T05:08:26.818Z,12.63
2018-09-18T05:10:19.614Z,12.67
2018-09-18T05:11:19.498Z,12.66
2018-09-18T05:13:12.310Z,12.76
2018-09-18T05:14:12.234Z,12.71
2018-09-18T05:16:05.033Z,12.85
2018-09-18T05:17:04.934Z,12.89
2018-09-18T05:18:57.694Z,12.89
2018-09-18T05:19:57.638Z,12.98
2018-09-18T05:21:50.415Z,12.91
2018-09-18T05:22:50.329Z,12.98
2018-09-18T05:24:43.119Z,12.99
2018-09-18T05:25:43.077Z,13.09
2018-09-18T05:27:35.834Z,13.16
2018-09-18T05:28:35.756Z,13.10
2018-09-18T05:30:28.530Z,13.19
2018-09-18T05:31:28.463Z,13.29
2018-09-18T05:33:21.261Z,13.46
2018-09-18T05:34:21.185Z,13.47
2018-09-18T05:36:13.968Z,13.47
2018-09-18T05:37:13.883Z,13.57
2018-09-18T05:39:06.657Z,13.72
2018-09-18T05:40:06.589Z,13.68
2018-09-18T05:41:59.432Z,14.04
2018-09-18T05:42:59.301Z,14.17
2018-09-18T05:44:52.073Z,14.53
2018-09-18T05:45:52.014Z,14.56
2018-09-18T05:47:44.807Z,14.74
2018-09-18T05:48:44.732Z,14.79
2018-09-18T05:50:37.518Z,14.71
2018-09-18T05:51:37.443Z,14.79
2018-09-18T05:53:30.237Z,14.83
2018-09-18T05:54:30.165Z,14.78
2018-09-18T05:56:22.940Z,14.85
2018-09-18T05:57:22.902Z,14.85
2018-09-18T05:59:15.647Z,14.94
2018-09-18T06:00:15.579Z,15.01
2018-09-18T06:02:07.457Z,15.09
2018-09-18T06:03:07.332Z,15.15
2018-09-18T06:05:00.117Z,15.22
2018-09-18T06:06:00.049Z,15.34
2018-09-18T06:07:52.827Z,15.41
2018-09-18T06:08:52.762Z,15.46
2018-09-18T06:10:45.519Z,15.48
2018-09-18T06:11:45.456Z,15.53
2018-09-18T06:13:38.290Z,15.59
2018-09-18T06:14:38.212Z,15.73
2018-09-18T06:16:30.999Z,15.84
2018-09-18T06:17:30.930Z,15.95
2018-09-18T06:19:23.696Z,16.08
2018-09-18T06:20:23.665Z,16.22
2018-09-18T06:22:16.474Z,16.44
2018-09-18T06:23:16.381Z,16.51
2018-09-18T06:25:09.147Z,16.81
2018-09-18T06:26:09.084Z,17.02
2018-09-18T06:28:01.863Z,17.18
2018-09-18T06:29:01.778Z,17.42
2018-09-18T06:30:54.616Z,17.81
2018-09-18T06:31:54.531Z,18.10
2018-09-18T06:33:47.330Z,18.59
2018-09-18T06:34:47.258Z,18.84
2018-09-18T06:36:40.060Z,19.25
2018-09-18T06:37:39.978Z,19.53
2018-09-18T06:39:32.767Z,20.12
2018-09-18T06:40:32.710Z,20.42
2018-09-18T06:42:25.560Z,21.36
2018-09-18T06:43:25.432Z,21.94
2018-09-18T06:45:18.186Z,22.63
2018-09-18T06:46:18.120Z,22.89
2018-09-18T06:48:10.935Z,23.52
2018-09-18T06:49:10.857Z,23.69
2018-09-18T06:51:03.621Z,24.00
2018-09-18T06:52:03.561Z,24.23
2018-09-18T06:53:56.381Z,24.64
2018-09-18T06:54:56.322Z,24.89
2018-09-18T06:56:49.115Z,25.23
2018-09-18T06:57:49.036Z,25.23
2018-09-18T06:59:41.817Z,25.46
2018-09-18T07:00:41.758Z,25.53
2018-09-18T07:02:34.582Z,25.59
2018-09-18T07:03:34.488Z,25.74
2018-09-18T07:05:27.374Z,25.83
2018-09-18T07:06:27.279Z,25.81
2018-09-18T07:08:20.122Z,26.17
2018-09-18T07:09:20.039Z,26.13
2018-09-18T07:11:12.819Z,26.16
2018-09-18T07:12:12.765Z,26.20
2018-09-18T07:14:05.585Z,26.12
2018-09-18T07:15:05.515Z,26.03
2018-09-18T07:16:58.346Z,25.59
2018-09-18T07:17:58.305Z,25.31
2018-09-18T07:19:51.077Z,25.41
2018-09-18T07:20:50.997Z,25.14
2018-09-18T07:22:43.838Z,25.44
2018-09-18T07:23:43.771Z,25.36
2018-09-18T07:25:36.522Z,25.56
2018-09-18T07:26:36.472Z,25.83
2018-09-18T07:28:29.276Z,26.13
2018-09-18T07:29:29.213Z,26.28
2018-09-18T07:31:22.026Z,26.12
2018-09-18T07:32:21.938Z,26.11
2018-09-18T07:34:14.754Z,26.01
2018-09-18T07:35:14.709Z,25.83
2018-09-18T07:37:07.494Z,25.86
2018-09-18T07:38:07.427Z,25.89
2018-09-18T07:40:00.251Z,25.36
2018-09-18T07:41:00.210Z,24.93
2018-09-18T07:42:52.986Z,24.75
2018-09-18T07:43:52.918Z,24.63
2018-09-18T07:45:45.717Z,24.75
2018-09-18T07:46:45.655Z,24.67
2018-09-18T07:48:38.460Z,24.74
2018-09-18T07:49:38.373Z,24.93
2018-09-18T07:51:31.166Z,25.29
2018-09-18T07:52:31.109Z,25.26
2018-09-18T07:54:23.931Z,25.48
2018-09-18T07:55:23.854Z,25.66
2018-09-18T07:57:16.645Z,25.82
2018-09-18T07:58:16.583Z,25.96
2018-09-18T08:00:09.473Z,26.60
2018-09-18T08:01:09.424Z,26.90
2018-09-18T08:03:02.189Z,27.12
2018-09-18T08:04:02.068Z,27.03
2018-09-18T08:06:20.333Z,27.31
2018-09-18T08:07:20.281Z,27.45
2018-09-18T08:09:13.064Z,27.68
2018-09-18T08:10:12.998Z,27.74
2018-09-18T08:12:05.778Z,28.11
2018-09-18T08:13:05.718Z,28.42
2018-09-18T08:14:58.514Z,28.70
2018-09-18T08:15:58.446Z,29.05
2018-09-18T08:17:51.241Z,29.32
2018-09-18T08:18:51.323Z,29.30
2018-09-18T08:20:43.967Z,29.37
2018-09-18T08:21:43.896Z,29.39
2018-09-18T08:23:36.690Z,29.47
2018-09-18T08:24:36.643Z,29.78
2018-09-18T08:26:29.419Z,30.21
2018-09-18T08:27:29.366Z,30.36
2018-09-18T08:29:22.172Z,30.67
2018-09-18T08:30:22.110Z,30.86
2018-09-18T08:32:14.903Z,31.00
2018-09-18T08:33:14.847Z,31.13
2018-09-18T08:35:07.715Z,31.10
2018-09-18T08:36:07.602Z,30.79
2018-09-18T08:38:00.424Z,31.05
2018-09-18T08:39:00.333Z,30.78
2018-09-18T08:40:53.141Z,31.01
2018-09-18T08:41:53.078Z,31.15
2018-09-18T08:43:45.898Z,30.98
2018-09-18T08:44:45.835Z,31.04
2018-09-18T08:46:38.599Z,30.91
2018-09-18T08:47:38.553Z,30.75
2018-09-18T08:49:31.422Z,30.66
2018-09-18T08:50:31.363Z,30.70
2018-09-18T08:52:24.132Z,31.20
2018-09-18T08:53:24.064Z,31.32
2018-09-18T08:55:16.901Z,31.19
2018-09-18T08:56:16.806Z,31.35
2018-09-18T08:58:08.799Z,31.40
2018-09-18T08:59:08.732Z,31.62
2018-09-18T09:01:00.710Z,31.20
2018-09-18T09:02:00.622Z,30.97
2018-09-18T09:03:53.446Z,31.22
2018-09-18T09:04:53.368Z,31.15
2018-09-18T09:06:46.219Z,31.34
2018-09-18T09:07:46.194Z,31.09
2018-09-18T09:09:38.983Z,31.28
2018-09-18T09:10:38.853Z,31.49
2018-09-18T09:12:31.648Z,31.45
2018-09-18T09:13:31.636Z,31.32
2018-09-18T09:15:24.421Z,31.13
2018-09-18T09:16:24.342Z,31.35
2018-09-18T09:18:17.259Z,31.35
2018-09-18T09:19:17.079Z,31.64
2018-09-18T09:21:09.959Z,31.90
2018-09-18T09:22:09.882Z,31.98
2018-09-18T09:24:02.604Z,32.19
2018-09-18T09:25:02.557Z,31.97
2018-09-18T09:26:55.413Z,31.91
2018-09-18T09:27:55.337Z,31.90
2018-09-18T09:29:48.092Z,31.94
2018-09-18T09:30:48.042Z,32.02
2018-09-18T09:32:40.852Z,31.57
2018-09-18T09:33:40.786Z,31.64
2018-09-18T09:35:33.621Z,31.92
2018-09-18T09:36:33.559Z,32.09
2018-09-18T09:38:26.355Z,31.92
2018-09-18T09:39:26.283Z,31.60
2018-09-18T09:41:19.090Z,31.49
2018-09-18T09:42:19.020Z,31.42
2018-09-18T09:44:11.828Z,31.31
2018-09-18T09:45:11.863Z,31.71
2018-09-18T09:47:04.573Z,31.82
2018-09-18T09:48:04.510Z,31.85
2018-09-18T09:49:57.300Z,31.57
2018-09-18T09:50:57.258Z,31.62
2018-09-18T09:52:50.045Z,31.35
2018-09-18T09:53:49.987Z,31.37
2018-09-18T09:55:42.767Z,31.52
2018-09-18T09:56:42.729Z,31.56
2018-09-18T09:58:35.518Z,31.19
2018-09-18T09:59:35.456Z,31.13
2018-09-18T10:01:28.266Z,31.07
2018-09-18T10:02:28.203Z,30.91
2018-09-18T10:04:20.991Z,30.67
2018-09-18T10:05:20.933Z,30.56
2018-09-18T10:07:13.749Z,30.57
2018-09-18T10:08:13.677Z,30.63
2018-09-18T10:10:06.461Z,30.61
2018-09-18T10:11:06.472Z,30.67
2018-09-18T10:12:59.204Z,30.81
2018-09-18T10:13:59.138Z,30.91
2018-09-18T10:15:51.922Z,30.94
2018-09-18T10:16:51.872Z,30.68
2018-09-18T10:18:44.687Z,30.60
2018-09-18T10:19:44.616Z,30.54
2018-09-18T10:21:37.411Z,30.66
2018-09-18T10:22:37.419Z,30.59
2018-09-18T10:24:30.176Z,30.72
2018-09-18T10:25:30.095Z,30.91
2018-09-18T10:27:22.900Z,30.82
2018-09-18T10:28:22.811Z,30.70
2018-09-18T10:30:15.606Z,30.67
2018-09-18T10:31:15.563Z,30.82
2018-09-18T10:33:08.389Z,30.91
2018-09-18T10:34:08.311Z,30.91
2018-09-18T10:36:01.065Z,31.16
2018-09-18T10:37:01.009Z,31.03
2018-09-18T10:38:53.818Z,31.13
2018-09-18T10:39:53.752Z,31.04
2018-09-18T10:41:46.570Z,31.00
2018-09-18T10:42:46.568Z,31.03
2018-09-18T10:44:39.316Z,31.15
2018-09-18T10:45:39.319Z,31.05
2018-09-18T10:47:32.025Z,31.19
2018-09-18T10:48:31.986Z,31.07
2018-09-18T10:50:24.773Z,31.07
2018-09-18T10:51:24.708Z,31.04
2018-09-18T10:53:17.502Z,31.05
2018-09-18T10:54:17.426Z,31.05
2018-09-18T10:56:10.228Z,31.09
2018-09-18T10:57:10.171Z,31.01
2018-09-18T10:59:02.960Z,30.83
2018-09-18T11:00:02.927Z,30.83
2018-09-18T11:01:55.766Z,30.83
2018-09-18T11:02:55.617Z,30.81
2018-09-18T11:04:48.410Z,30.67
2018-09-18T11:05:48.376Z,30.70
2018-09-18T11:07:41.307Z,30.75
2018-09-18T11:08:41.086Z,30.57
2018-09-18T11:10:33.930Z,30.68
2018-09-18T11:11:33.827Z,30.79
2018-09-18T11:13:26.671Z,30.85
2018-09-18T11:14:26.553Z,30.68
2018-09-18T11:16:19.324Z,30.67
2018-09-18T11:17:19.272Z,30.88
2018-09-18T11:19:11.222Z,30.86
2018-09-18T11:20:11.172Z,30.90
2018-09-18T11:22:03.148Z,30.81
2018-09-18T11:23:02.971Z,30.73
2018-09-18T11:24:55.813Z,30.68
2018-09-18T11:25:55.775Z,30.60
2018-09-18T11:27:48.515Z,30.26
2018-09-18T11:28:48.447Z,30.19
2018-09-18T11:30:41.249Z,30.19
2018-09-18T11:31:41.178Z,30.07
2018-09-18T11:33:33.974Z,30.00
2018-09-18T11:34:33.907Z,30.00
2018-09-18T11:36:26.719Z,29.95
2018-09-18T11:37:26.638Z,30.01
2018-09-18T11:39:19.431Z,29.97
2018-09-18T11:40:19.361Z,30.01
2018-09-18T11:42:12.145Z,30.21
2018-09-18T11:43:12.087Z,30.00
2018-09-18T11:45:04.874Z,29.95
2018-09-18T11:46:04.912Z,29.85
2018-09-18T11:47:56.752Z,29.88
2018-09-18T11:48:56.705Z,29.88
2018-09-18T11:50:49.498Z,29.99
2018-09-18T11:51:49.428Z,29.95
2018-09-18T11:53:42.223Z,29.97
2018-09-18T11:54:42.165Z,30.00
2018-09-18T11:56:34.980Z,29.97
2018-09-18T11:57:34.883Z,29.94
2018-09-18T11:59:26.759Z,29.97
2018-09-18T12:00:26.706Z,29.99
2018-09-18T12:02:19.521Z,29.97
2018-09-18T12:03:19.448Z,30.00
2018-09-18T12:05:12.328Z,30.03
2018-09-18T12:06:12.164Z,30.06
2018-09-18T12:08:04.977Z,29.92
2018-09-18T12:09:04.956Z,30.00
2018-09-18T12:10:57.704Z,30.01
2018-09-18T12:11:57.651Z,30.03
2018-09-18T12:13:50.488Z,30.03
2018-09-18T12:14:50.443Z,29.95
2018-09-18T12:16:43.211Z,29.99
2018-09-18T12:17:43.144Z,29.88
2018-09-18T12:19:35.083Z,29.99
2018-09-18T12:20:34.989Z,30.04
2018-09-18T12:22:27.946Z,30.15
2018-09-18T12:23:27.729Z,30.22
2018-09-18T12:25:20.515Z,30.15
2018-09-18T12:26:20.448Z,30.18
2018-09-18T12:28:13.223Z,30.16
2018-09-18T12:29:13.168Z,30.16
2018-09-18T12:31:05.964Z,30.18
2018-09-18T12:32:05.887Z,30.07
2018-09-18T12:33:58.664Z,30.08
2018-09-18T12:34:58.606Z,30.01
2018-09-18T12:36:50.526Z,30.03
2018-09-18T12:37:50.414Z,29.99
2018-09-18T12:39:43.192Z,30.04
2018-09-18T12:40:43.125Z,30.07
2018-09-18T12:42:35.038Z,30.10
2018-09-18T12:43:34.909Z,30.21
2018-09-18T12:45:27.681Z,30.28
2018-09-18T12:46:27.602Z,30.28
2018-09-18T12:48:19.481Z,30.36
2018-09-18T12:49:19.524Z,30.42
2018-09-18T12:51:12.222Z,30.37
2018-09-18T12:52:12.156Z,30.48
2018-09-18T12:54:04.938Z,30.40
2018-09-18T12:55:04.872Z,30.28
2018-09-18T12:56:57.789Z,30.25
2018-09-18T12:57:57.596Z,30.29
2018-09-18T12:59:50.555Z,30.23
2018-09-18T13:00:50.384Z,30.25
2018-09-18T13:02:43.172Z,30.28
2018-09-18T13:03:43.096Z,30.25
2018-09-18T13:05:35.901Z,30.25
2018-09-18T13:06:35.852Z,30.25
2018-09-18T13:08:28.591Z,30.21
2018-09-18T13:09:28.538Z,30.23
2018-09-18T13:11:21.344Z,30.08
2018-09-18T13:12:21.305Z,30.16
2018-09-18T13:14:14.242Z,30.08
2018-09-18T13:15:14.037Z,30.11
2018-09-18T13:17:05.781Z,30.18
2018-09-18T13:18:05.719Z,30.26
2018-09-18T13:19:58.565Z,30.25
2018-09-18T13:20:58.426Z,30.34
2018-09-18T13:22:51.249Z,30.25
2018-09-18T13:23:51.151Z,30.28
2018-09-18T13:25:43.954Z,30.26
2018-09-18T13:26:43.875Z,30.29
2018-09-18T13:28:36.662Z,30.42
2018-09-18T13:29:36.595Z,30.28
2018-09-18T13:31:29.396Z,30.30
2018-09-18T13:32:29.315Z,30.32
2018-09-18T13:34:22.120Z,30.38
2018-09-18T13:35:22.044Z,30.38
2018-09-18T13:37:14.874Z,30.46
2018-09-18T13:38:14.763Z,30.28
2018-09-18T13:40:07.536Z,30.26
2018-09-18T13:41:07.503Z,30.37
2018-09-18T13:43:00.289Z,30.28
2018-09-18T13:44:00.224Z,30.18
2018-09-18T13:45:53.016Z,30.16
2018-09-18T13:46:52.945Z,30.23
2018-09-18T13:48:45.747Z,30.25
2018-09-18T13:49:45.672Z,30.29
2018-09-18T13:51:38.476Z,30.45
2018-09-18T13:52:38.411Z,30.42
2018-09-18T13:54:31.190Z,30.34
2018-09-18T13:55:31.187Z,30.48
2018-09-18T13:57:23.990Z,30.48
2018-09-18T13:58:23.861Z,30.45
2018-09-18T14:00:16.654Z,30.56
2018-09-18T14:01:16.655Z,30.45
2018-09-18T14:03:09.380Z,30.48
2018-09-18T14:04:09.355Z,30.48
2018-09-18T14:06:02.157Z,30.53
2018-09-18T14:07:02.037Z,30.49
2018-09-18T14:08:54.910Z,30.34
2018-09-18T14:09:54.918Z,30.42
2018-09-18T14:11:47.616Z,30.38
2018-09-18T14:12:47.521Z,30.38
2018-09-18T14:14:40.364Z,30.42
2018-09-18T14:15:40.307Z,30.51
2018-09-18T14:17:33.285Z,30.48
2018-09-18T14:18:33.144Z,30.49
2018-09-18T14:20:25.950Z,30.51
2018-09-18T14:21:25.842Z,30.45
2018-09-18T14:23:18.628Z,30.53
2018-09-18T14:24:18.559Z,30.45
2018-09-18T14:26:10.402Z,30.54
2018-09-18T14:27:10.283Z,30.44
2018-09-18T14:29:03.098Z,30.40
2018-09-18T14:30:03.040Z,30.38
2018-09-18T14:31:55.830Z,30.34
2018-09-18T14:32:55.755Z,30.36
2018-09-18T14:34:48.574Z,30.28
2018-09-18T14:35:48.486Z,30.28
2018-09-18T14:37:41.269Z,30.32
2018-09-18T14:38:41.197Z,30.29
2018-09-18T14:40:33.997Z,30.29
2018-09-18T14:41:33.915Z,30.30
2018-09-18T14:43:26.716Z,30.28
2018-09-18T14:44:26.650Z,30.34
2018-09-18T14:46:19.450Z,30.42
2018-09-18T14:47:19.382Z,30.34
2018-09-18T14:49:12.151Z,30.36
2018-09-18T14:50:12.107Z,30.32
2018-09-18T14:52:04.892Z,30.34
2018-09-18T14:53:04.819Z,30.29
2018-09-18T14:54:57.608Z,30.30
2018-09-18T14:55:57.553Z,30.30
2018-09-18T14:57:50.337Z,30.38
2018-09-18T14:58:50.270Z,30.38
2018-09-18T15:00:43.056Z,30.45
2018-09-18T15:01:42.996Z,30.46
2018-09-18T15:03:35.796Z,30.44
2018-09-18T15:04:35.720Z,30.42
2018-09-18T15:06:28.494Z,30.45
2018-09-18T15:07:28.431Z,30.37
2018-09-18T15:09:21.252Z,30.42
2018-09-18T15:10:21.163Z,30.40
2018-09-18T15:12:13.952Z,30.22
2018-09-18T15:13:13.884Z,30.23
2018-09-18T15:15:06.654Z,30.28
2018-09-18T15:16:06.598Z,30.32
2018-09-18T15:17:59.405Z,30.26
2018-09-18T15:18:59.322Z,30.32
2018-09-18T15:20:51.165Z,30.29
2018-09-18T15:21:51.164Z,30.28
2018-09-18T15:23:43.898Z,30.26
2018-09-18T15:24:43.825Z,30.22
2018-09-18T15:26:36.614Z,30.16
2018-09-18T15:27:36.558Z,30.15
2018-09-18T15:29:29.333Z,30.23
2018-09-18T15:30:29.271Z,30.11
2018-09-18T15:32:22.071Z,30.10
2018-09-18T15:33:22.023Z,30.19
2018-09-18T15:35:14.774Z,30.16
2018-09-18T15:36:14.718Z,30.10
2018-09-18T15:38:07.506Z,30.18
2018-09-18T15:39:07.429Z,30.16
2018-09-18T15:41:00.215Z,30.18
2018-09-18T15:42:00.150Z,30.04
2018-09-18T15:43:52.925Z,29.99
2018-09-18T15:44:52.858Z,30.01
2018-09-18T15:46:45.671Z,30.00
2018-09-18T15:47:45.579Z,29.95
2018-09-18T15:49:38.380Z,29.91
2018-09-18T15:50:38.308Z,29.84
2018-09-18T15:52:31.653Z,29.89
2018-09-18T15:53:31.066Z,29.74
2018-09-18T15:55:23.906Z,29.79
2018-09-18T15:56:23.777Z,29.76
2018-09-18T15:58:16.562Z,29.76
2018-09-18T15:59:16.494Z,29.73
2018-09-18T16:01:09.328Z,29.63
2018-09-18T16:02:09.236Z,29.51
2018-09-18T16:04:02.034Z,29.44
2018-09-18T16:05:01.963Z,29.48
2018-09-18T16:06:54.734Z,29.48
2018-09-18T16:07:54.676Z,29.44
2018-09-18T16:09:47.536Z,29.44
2018-09-18T16:10:47.404Z,29.47
2018-09-18T16:12:40.183Z,29.48
2018-09-18T16:13:40.136Z,29.49
2018-09-18T16:16:32.856Z,29.37
2018-09-18T16:18:25.645Z,29.25
2018-09-18T16:19:25.577Z,29.27
2018-09-18T16:21:18.369Z,29.26
2018-09-18T16:22:18.313Z,29.25
2018-09-18T16:24:11.127Z,29.23
2018-09-18T16:25:11.023Z,29.26
2018-09-18T16:27:03.803Z,29.15
2018-09-18T16:28:03.746Z,29.17
2018-09-18T16:29:56.545Z,29.00
2018-09-18T16:30:56.547Z,28.98
2018-09-18T16:32:49.272Z,28.82
2018-09-18T16:33:49.191Z,28.77
2018-09-18T16:35:41.972Z,28.62
2018-09-18T16:36:41.919Z,28.62
2018-09-18T16:38:34.726Z,28.45
2018-09-18T16:39:35.131Z,28.46
2018-09-18T16:41:27.431Z,28.33
2018-09-18T16:42:27.387Z,28.14
2018-09-18T16:44:19.329Z,28.13
2018-09-18T16:45:19.265Z,28.08
2018-09-18T16:47:12.044Z,27.99
2018-09-18T16:48:11.990Z,27.90
2018-09-18T16:50:04.788Z,27.76
2018-09-18T16:51:04.704Z,27.71
2018-09-18T16:52:57.515Z,27.65
2018-09-18T16:53:57.450Z,27.58
2018-09-18T16:55:50.229Z,27.45
2018-09-18T16:56:50.166Z,27.35
2018-09-18T16:58:42.202Z,27.25
2018-09-18T16:59:41.992Z,27.24
2018-09-18T17:01:34.821Z,27.09
2018-09-18T17:02:34.776Z,27.05
2018-09-18T17:04:27.519Z,27.06
2018-09-18T17:05:27.427Z,26.88
2018-09-18T17:07:20.190Z,26.84
2018-09-18T17:08:20.140Z,26.75
2018-09-18T17:10:12.936Z,26.54
2018-09-18T17:11:12.864Z,26.57
2018-09-18T17:13:05.687Z,26.31
2018-09-18T17:14:05.595Z,26.28
2018-09-18T17:15:57.530Z,26.19
2018-09-18T17:16:57.439Z,26.06
2018-09-18T17:18:50.213Z,25.94
2018-09-18T17:19:50.144Z,25.93
2018-09-18T17:21:42.923Z,25.75
2018-09-18T17:22:42.860Z,25.64
2018-09-18T17:24:35.743Z,25.49
2018-09-18T17:25:35.569Z,25.42
2018-09-18T17:27:28.347Z,25.26
2018-09-18T17:28:28.382Z,25.17
2018-09-18T17:30:21.167Z,25.04
2018-09-18T17:31:20.999Z,24.93
2018-09-18T17:33:13.787Z,24.75
2018-09-18T17:34:13.740Z,24.74
2018-09-18T17:36:06.491Z,24.56
2018-09-18T17:37:06.425Z,24.51
2018-09-18T17:38:59.221Z,24.30
2018-09-18T17:39:59.228Z,24.14
2018-09-18T17:41:51.923Z,24.14
2018-09-18T17:42:51.852Z,24.08
2018-09-18T17:44:44.639Z,23.99
2018-09-18T17:45:44.571Z,23.93
2018-09-18T17:47:37.451Z,23.78
2018-09-18T17:48:37.318Z,23.75
2018-09-18T17:50:30.092Z,23.68
2018-09-18T17:51:30.055Z,23.62
2018-09-18T17:53:22.841Z,23.60
2018-09-18T17:54:22.725Z,23.53
2018-09-18T17:56:15.507Z,23.39
2018-09-18T17:57:15.443Z,23.39
2018-09-18T17:59:08.226Z,23.23
2018-09-18T18:00:08.164Z,23.12
2018-09-18T18:02:00.937Z,23.07
2018-09-18T18:03:00.879Z,23.01
2018-09-18T18:04:53.663Z,22.91
2018-09-18T18:05:53.593Z,22.86
2018-09-18T18:07:46.356Z,22.79
2018-09-18T18:08:46.303Z,22.76
2018-09-18T18:10:39.108Z,22.81
2018-09-18T18:11:39.064Z,22.66
2018-09-18T18:13:31.784Z,22.51
2018-09-18T18:14:31.711Z,22.54
2018-09-18T18:16:24.486Z,22.46
2018-09-18T18:17:24.456Z,22.48
2018-09-18T18:19:17.246Z,22.44
2018-09-18T18:20:17.227Z,22.42
2018-09-18T18:22:09.933Z,22.29
2018-09-18T18:23:09.876Z,22.23
2018-09-18T18:25:02.703Z,22.14
2018-09-18T18:26:02.646Z,22.14
2018-09-18T18:27:55.411Z,22.08
2018-09-18T18:28:55.353Z,22.09
2018-09-18T18:30:48.131Z,22.05
2018-09-18T18:31:48.062Z,21.99
2018-09-18T18:33:40.848Z,21.79